sensor_id;sensor_type;location;lat;lon;timestamp;P1;durP1;ratioP1;P2;durP2;ratioP2
20480;SDS011;10399;50.754;3.366;2023-04-03T00:02:02;27.38;;;18.08;;
20480;SDS011;10399;50.754;3.366;2023-04-03T00:04:30;29.58;;;19.92;;
20480;SDS011;10399;50.754;3.366;2023-04-03T00:06:57;28.35;;;20.50;;
20480;SDS011;10399;50.754;3.366;2023-04-03T00:09:24;29.17;;;19.65;;
20480;SDS011;10399;50.754;3.366;2023-04-03T00:11:52;32.72;;;20.17;;
20480;SDS011;10399;50.754;3.366;2023-04-03T00:14:19;31.90;;;20.35;;
20480;SDS011;10399;50.754;3.366;2023-04-03T00:16:46;32.40;;;21.23;;
20480;SDS011;10399;50.754;3.366;2023-04-03T00:19:13;32.97;;;21.25;;
20480;SDS011;10399;50.754;3.366;2023-04-03T00:21:40;27.58;;;19.63;;
20480;SDS011;10399;50.754;3.366;2023-04-03T00:24:07;29.15;;;20.83;;
20480;SDS011;10399;50.754;3.366;2023-04-03T00:26:33;28.05;;;19.33;;
20480;SDS011;10399;50.754;3.366;2023-04-03T00:29:01;28.80;;;19.85;;
20480;SDS011;10399;50.754;3.366;2023-04-03T00:31:28;32.28;;;19.13;;
20480;SDS011;10399;50.754;3.366;2023-04-03T00:33:55;32.22;;;20.55;;
20480;SDS011;10399;50.754;3.366;2023-04-03T00:36:21;27.50;;;18.25;;
20480;SDS011;10399;50.754;3.366;2023-04-03T00:38:49;30.63;;;19.52;;
20480;SDS011;10399;50.754;3.366;2023-04-03T00:41:16;26.30;;;17.90;;
20480;SDS011;10399;50.754;3.366;2023-04-03T00:43:43;29.15;;;18.75;;
20480;SDS011;10399;50.754;3.366;2023-04-03T00:46:10;31.33;;;19.27;;
20480;SDS011;10399;50.754;3.366;2023-04-03T00:48:39;36.15;;;18.90;;
20480;SDS011;10399;50.754;3.366;2023-04-03T00:51:10;29.13;;;19.02;;
20480;SDS011;10399;50.754;3.366;2023-04-03T00:53:47;25.67;;;17.85;;
20480;SDS011;10399;50.754;3.366;2023-04-03T00:56:21;31.90;;;19.17;;
20480;SDS011;10399;50.754;3.366;2023-04-03T00:58:58;31.13;;;18.17;;
20480;SDS011;10399;50.754;3.366;2023-04-03T01:01:34;26.92;;;17.98;;
20480;SDS011;10399;50.754;3.366;2023-04-03T01:04:02;27.00;;;18.15;;
20480;SDS011;10399;50.754;3.366;2023-04-03T01:06:34;27.33;;;18.48;;
20480;SDS011;10399;50.754;3.366;2023-04-03T01:09:03;27.80;;;17.35;;
20480;SDS011;10399;50.754;3.366;2023-04-03T01:11:31;24.55;;;16.33;;
20480;SDS011;10399;50.754;3.366;2023-04-03T01:13:58;27.65;;;16.73;;
20480;SDS011;10399;50.754;3.366;2023-04-03T01:16:27;32.08;;;17.23;;
20480;SDS011;10399;50.754;3.366;2023-04-03T01:18:57;27.50;;;17.42;;
20480;SDS011;10399;50.754;3.366;2023-04-03T01:27:06;26.52;;;17.60;;
20480;SDS011;10399;50.754;3.366;2023-04-03T01:29:35;28.83;;;17.27;;
20480;SDS011;10399;50.754;3.366;2023-04-03T01:32:03;25.40;;;17.73;;
20480;SDS011;10399;50.754;3.366;2023-04-03T01:34:30;26.90;;;16.80;;
20480;SDS011;10399;50.754;3.366;2023-04-03T01:36:57;25.23;;;17.67;;
20480;SDS011;10399;50.754;3.366;2023-04-03T01:39:24;26.30;;;17.02;;
20480;SDS011;10399;50.754;3.366;2023-04-03T01:41:52;26.40;;;16.63;;
20480;SDS011;10399;50.754;3.366;2023-04-03T01:44:19;24.92;;;15.73;;
20480;SDS011;10399;50.754;3.366;2023-04-03T01:46:46;26.27;;;16.67;;
20480;SDS011;10399;50.754;3.366;2023-04-03T01:49:13;25.00;;;16.50;;
20480;SDS011;10399;50.754;3.366;2023-04-03T01:51:40;25.23;;;15.57;;
20480;SDS011;10399;50.754;3.366;2023-04-03T01:54:07;24.50;;;15.68;;
20480;SDS011;10399;50.754;3.366;2023-04-03T01:56:34;20.70;;;14.68;;
20480;SDS011;10399;50.754;3.366;2023-04-03T01:59:02;21.63;;;15.35;;
20480;SDS011;10399;50.754;3.366;2023-04-03T02:01:29;23.90;;;14.57;;
20480;SDS011;10399;50.754;3.366;2023-04-03T02:03:56;21.08;;;14.75;;
20480;SDS011;10399;50.754;3.366;2023-04-03T02:06:23;21.40;;;14.38;;
20480;SDS011;10399;50.754;3.366;2023-04-03T02:08:50;23.65;;;14.65;;
20480;SDS011;10399;50.754;3.366;2023-04-03T02:11:16;24.02;;;14.55;;
20480;SDS011;10399;50.754;3.366;2023-04-03T02:13:43;20.17;;;14.20;;
20480;SDS011;10399;50.754;3.366;2023-04-03T02:16:11;22.35;;;14.68;;
20480;SDS011;10399;50.754;3.366;2023-04-03T02:18:38;21.85;;;14.65;;
20480;SDS011;10399;50.754;3.366;2023-04-03T02:21:05;21.92;;;14.07;;
20480;SDS011;10399;50.754;3.366;2023-04-03T02:23:33;23.85;;;14.30;;
20480;SDS011;10399;50.754;3.366;2023-04-03T02:26:03;23.40;;;14.65;;
20480;SDS011;10399;50.754;3.366;2023-04-03T02:28:31;20.90;;;14.10;;
20480;SDS011;10399;50.754;3.366;2023-04-03T02:30:59;21.52;;;13.57;;
20480;SDS011;10399;50.754;3.366;2023-04-03T02:33:26;22.77;;;14.25;;
20480;SDS011;10399;50.754;3.366;2023-04-03T02:35:54;19.63;;;13.57;;
20480;SDS011;10399;50.754;3.366;2023-04-03T02:38:22;22.75;;;13.80;;
20480;SDS011;10399;50.754;3.366;2023-04-03T02:40:50;20.85;;;13.18;;
20480;SDS011;10399;50.754;3.366;2023-04-03T02:43:17;19.60;;;13.07;;
20480;SDS011;10399;50.754;3.366;2023-04-03T02:45:45;18.67;;;12.85;;
20480;SDS011;10399;50.754;3.366;2023-04-03T02:48:12;17.63;;;12.70;;
20480;SDS011;10399;50.754;3.366;2023-04-03T02:50:41;19.63;;;12.75;;
20480;SDS011;10399;50.754;3.366;2023-04-03T02:53:07;20.52;;;13.43;;
20480;SDS011;10399;50.754;3.366;2023-04-03T02:55:34;19.67;;;12.75;;
20480;SDS011;10399;50.754;3.366;2023-04-03T02:58:02;20.70;;;11.88;;
20480;SDS011;10399;50.754;3.366;2023-04-03T03:00:29;21.88;;;13.32;;
20480;SDS011;10399;50.754;3.366;2023-04-03T03:03:00;18.25;;;12.13;;
20480;SDS011;10399;50.754;3.366;2023-04-03T03:05:27;19.13;;;12.15;;
20480;SDS011;10399;50.754;3.366;2023-04-03T03:07:55;20.67;;;12.85;;
20480;SDS011;10399;50.754;3.366;2023-04-03T03:10:25;19.42;;;12.15;;
20480;SDS011;10399;50.754;3.366;2023-04-03T03:12:52;19.60;;;12.48;;
20480;SDS011;10399;50.754;3.366;2023-04-03T03:15:19;20.65;;;12.70;;
20480;SDS011;10399;50.754;3.366;2023-04-03T03:17:46;19.50;;;12.30;;
20480;SDS011;10399;50.754;3.366;2023-04-03T03:20:13;18.45;;;11.63;;
20480;SDS011;10399;50.754;3.366;2023-04-03T03:22:41;19.88;;;11.70;;
20480;SDS011;10399;50.754;3.366;2023-04-03T03:25:08;19.08;;;11.60;;
20480;SDS011;10399;50.754;3.366;2023-04-03T03:27:35;18.88;;;12.02;;
20480;SDS011;10399;50.754;3.366;2023-04-03T03:30:02;16.77;;;11.15;;
20480;SDS011;10399;50.754;3.366;2023-04-03T03:32:30;22.23;;;12.07;;
20480;SDS011;10399;50.754;3.366;2023-04-03T03:34:57;19.52;;;12.20;;
20480;SDS011;10399;50.754;3.366;2023-04-03T03:37:24;20.45;;;11.45;;
20480;SDS011;10399;50.754;3.366;2023-04-03T03:39:51;16.17;;;10.57;;
20480;SDS011;10399;50.754;3.366;2023-04-03T03:42:18;19.25;;;11.30;;
20480;SDS011;10399;50.754;3.366;2023-04-03T03:44:45;17.88;;;11.27;;
20480;SDS011;10399;50.754;3.366;2023-04-03T03:47:12;17.30;;;10.75;;
20480;SDS011;10399;50.754;3.366;2023-04-03T03:49:38;14.35;;;10.18;;
20480;SDS011;10399;50.754;3.366;2023-04-03T03:52:05;17.10;;;10.65;;
20480;SDS011;10399;50.754;3.366;2023-04-03T03:54:32;16.35;;;11.00;;
20480;SDS011;10399;50.754;3.366;2023-04-03T03:56:59;14.55;;;10.43;;
20480;SDS011;10399;50.754;3.366;2023-04-03T03:59:26;16.15;;;10.93;;
20480;SDS011;10399;50.754;3.366;2023-04-03T04:01:53;17.40;;;10.27;;
20480;SDS011;10399;50.754;3.366;2023-04-03T04:04:21;16.88;;;9.85;;
20480;SDS011;10399;50.754;3.366;2023-04-03T04:06:48;16.88;;;9.68;;
20480;SDS011;10399;50.754;3.366;2023-04-03T04:09:15;14.95;;;9.82;;
20480;SDS011;10399;50.754;3.366;2023-04-03T04:11:42;18.90;;;10.25;;
20480;SDS011;10399;50.754;3.366;2023-04-03T04:14:09;16.50;;;9.52;;
20480;SDS011;10399;50.754;3.366;2023-04-03T04:16:38;15.98;;;10.15;;
20480;SDS011;10399;50.754;3.366;2023-04-03T04:19:05;14.25;;;9.90;;
20480;SDS011;10399;50.754;3.366;2023-04-03T04:21:34;17.63;;;10.63;;
20480;SDS011;10399;50.754;3.366;2023-04-03T04:24:01;15.00;;;9.55;;
20480;SDS011;10399;50.754;3.366;2023-04-03T04:26:28;15.80;;;9.82;;
20480;SDS011;10399;50.754;3.366;2023-04-03T04:28:56;15.70;;;10.25;;
20480;SDS011;10399;50.754;3.366;2023-04-03T04:31:23;16.98;;;10.35;;
20480;SDS011;10399;50.754;3.366;2023-04-03T04:33:50;15.23;;;10.35;;
20480;SDS011;10399;50.754;3.366;2023-04-03T04:36:17;17.13;;;10.40;;
20480;SDS011;10399;50.754;3.366;2023-04-03T04:38:44;15.07;;;10.80;;
20480;SDS011;10399;50.754;3.366;2023-04-03T04:41:11;18.17;;;10.95;;
20480;SDS011;10399;50.754;3.366;2023-04-03T04:43:38;16.63;;;10.82;;
20480;SDS011;10399;50.754;3.366;2023-04-03T04:46:06;15.35;;;10.57;;
20480;SDS011;10399;50.754;3.366;2023-04-03T04:48:34;17.05;;;10.38;;
20480;SDS011;10399;50.754;3.366;2023-04-03T04:51:02;15.60;;;11.13;;
20480;SDS011;10399;50.754;3.366;2023-04-03T04:53:29;14.48;;;10.70;;
20480;SDS011;10399;50.754;3.366;2023-04-03T04:55:56;14.10;;;10.50;;
20480;SDS011;10399;50.754;3.366;2023-04-03T04:58:24;14.88;;;9.73;;
20480;SDS011;10399;50.754;3.366;2023-04-03T05:01:01;17.80;;;10.38;;
20480;SDS011;10399;50.754;3.366;2023-04-03T05:03:29;14.82;;;10.38;;
20480;SDS011;10399;50.754;3.366;2023-04-03T05:05:56;16.67;;;10.57;;
20480;SDS011;10399;50.754;3.366;2023-04-03T05:08:24;19.23;;;10.50;;
20480;SDS011;10399;50.754;3.366;2023-04-03T05:10:51;14.23;;;9.10;;
20480;SDS011;10399;50.754;3.366;2023-04-03T05:13:21;17.90;;;10.00;;
20480;SDS011;10399;50.754;3.366;2023-04-03T05:15:48;14.05;;;9.57;;
20480;SDS011;10399;50.754;3.366;2023-04-03T05:18:15;13.45;;;10.30;;
20480;SDS011;10399;50.754;3.366;2023-04-03T05:20:42;13.85;;;9.68;;
20480;SDS011;10399;50.754;3.366;2023-04-03T05:23:10;14.05;;;9.88;;
20480;SDS011;10399;50.754;3.366;2023-04-03T05:25:38;17.10;;;9.88;;
20480;SDS011;10399;50.754;3.366;2023-04-03T05:28:05;13.18;;;9.57;;
20480;SDS011;10399;50.754;3.366;2023-04-03T05:30:32;16.55;;;9.80;;
20480;SDS011;10399;50.754;3.366;2023-04-03T05:33:00;16.42;;;10.18;;
20480;SDS011;10399;50.754;3.366;2023-04-03T05:35:27;15.95;;;10.07;;
20480;SDS011;10399;50.754;3.366;2023-04-03T05:37:54;14.32;;;9.02;;
20480;SDS011;10399;50.754;3.366;2023-04-03T05:40:21;14.23;;;9.07;;
20480;SDS011;10399;50.754;3.366;2023-04-03T05:42:48;16.58;;;10.43;;
20480;SDS011;10399;50.754;3.366;2023-04-03T05:45:15;15.18;;;9.63;;
20480;SDS011;10399;50.754;3.366;2023-04-03T05:47:43;16.33;;;9.18;;
20480;SDS011;10399;50.754;3.366;2023-04-03T05:50:10;13.05;;;9.38;;
20480;SDS011;10399;50.754;3.366;2023-04-03T05:52:38;16.25;;;9.57;;
20480;SDS011;10399;50.754;3.366;2023-04-03T05:55:08;13.52;;;9.88;;
20480;SDS011;10399;50.754;3.366;2023-04-03T05:57:35;13.65;;;8.90;;
20480;SDS011;10399;50.754;3.366;2023-04-03T06:00:06;15.50;;;9.60;;
20480;SDS011;10399;50.754;3.366;2023-04-03T06:02:37;15.18;;;9.32;;
20480;SDS011;10399;50.754;3.366;2023-04-03T06:05:05;15.98;;;9.90;;
20480;SDS011;10399;50.754;3.366;2023-04-03T06:07:33;17.98;;;9.30;;
20480;SDS011;10399;50.754;3.366;2023-04-03T06:10:01;12.95;;;8.73;;
20480;SDS011;10399;50.754;3.366;2023-04-03T06:12:29;17.20;;;9.43;;
20480;SDS011;10399;50.754;3.366;2023-04-03T06:14:56;16.88;;;9.40;;
20480;SDS011;10399;50.754;3.366;2023-04-03T06:17:23;17.67;;;9.82;;
20480;SDS011;10399;50.754;3.366;2023-04-03T06:19:50;19.13;;;9.27;;
20480;SDS011;10399;50.754;3.366;2023-04-03T06:22:17;19.00;;;9.82;;
20480;SDS011;10399;50.754;3.366;2023-04-03T06:24:44;14.20;;;8.98;;
20480;SDS011;10399;50.754;3.366;2023-04-03T06:27:11;15.52;;;9.32;;
20480;SDS011;10399;50.754;3.366;2023-04-03T06:29:38;13.48;;;8.98;;
20480;SDS011;10399;50.754;3.366;2023-04-03T06:32:06;12.60;;;9.15;;
20480;SDS011;10399;50.754;3.366;2023-04-03T06:34:33;17.20;;;9.68;;
20480;SDS011;10399;50.754;3.366;2023-04-03T06:37:00;12.68;;;8.90;;
20480;SDS011;10399;50.754;3.366;2023-04-03T06:39:27;14.77;;;8.85;;
20480;SDS011;10399;50.754;3.366;2023-04-03T06:41:54;16.23;;;9.23;;
20480;SDS011;10399;50.754;3.366;2023-04-03T06:44:21;18.85;;;9.35;;
20480;SDS011;10399;50.754;3.366;2023-04-03T06:46:49;13.45;;;8.82;;
20480;SDS011;10399;50.754;3.366;2023-04-03T06:49:18;14.73;;;9.13;;
20480;SDS011;10399;50.754;3.366;2023-04-03T06:51:45;12.13;;;9.00;;
20480;SDS011;10399;50.754;3.366;2023-04-03T06:54:12;13.57;;;8.48;;
20480;SDS011;10399;50.754;3.366;2023-04-03T06:56:39;24.33;;;9.75;;
20480;SDS011;10399;50.754;3.366;2023-04-03T06:59:09;20.35;;;8.52;;
20480;SDS011;10399;50.754;3.366;2023-04-03T07:01:39;13.98;;;8.60;;
20480;SDS011;10399;50.754;3.366;2023-04-03T07:04:07;11.38;;;8.05;;
20480;SDS011;10399;50.754;3.366;2023-04-03T07:06:34;13.02;;;8.38;;
20480;SDS011;10399;50.754;3.366;2023-04-03T07:09:01;13.70;;;9.15;;
20480;SDS011;10399;50.754;3.366;2023-04-03T07:11:29;13.90;;;9.07;;
20480;SDS011;10399;50.754;3.366;2023-04-03T07:13:56;14.07;;;8.88;;
20480;SDS011;10399;50.754;3.366;2023-04-03T07:16:23;12.50;;;8.32;;
20480;SDS011;10399;50.754;3.366;2023-04-03T07:18:51;11.18;;;8.50;;
20480;SDS011;10399;50.754;3.366;2023-04-03T07:21:18;13.93;;;8.48;;
20480;SDS011;10399;50.754;3.366;2023-04-03T07:23:45;12.35;;;7.93;;
20480;SDS011;10399;50.754;3.366;2023-04-03T07:26:12;15.10;;;8.80;;
20480;SDS011;10399;50.754;3.366;2023-04-03T07:28:40;12.98;;;8.10;;
20480;SDS011;10399;50.754;3.366;2023-04-03T07:31:09;11.18;;;8.00;;
20480;SDS011;10399;50.754;3.366;2023-04-03T07:33:40;12.43;;;8.27;;
20480;SDS011;10399;50.754;3.366;2023-04-03T07:36:08;14.75;;;8.15;;
20480;SDS011;10399;50.754;3.366;2023-04-03T07:38:37;14.88;;;8.82;;
20480;SDS011;10399;50.754;3.366;2023-04-03T07:41:04;8.93;;;7.68;;
20480;SDS011;10399;50.754;3.366;2023-04-03T07:43:32;10.27;;;8.05;;
20480;SDS011;10399;50.754;3.366;2023-04-03T07:46:00;10.80;;;7.22;;
20480;SDS011;10399;50.754;3.366;2023-04-03T07:48:27;15.35;;;8.05;;
20480;SDS011;10399;50.754;3.366;2023-04-03T07:50:58;16.17;;;7.68;;
20480;SDS011;10399;50.754;3.366;2023-04-03T07:53:26;12.18;;;7.65;;
20480;SDS011;10399;50.754;3.366;2023-04-03T07:55:53;10.80;;;6.97;;
20480;SDS011;10399;50.754;3.366;2023-04-03T07:58:22;9.55;;;6.70;;
20480;SDS011;10399;50.754;3.366;2023-04-03T08:00:49;15.13;;;7.57;;
20480;SDS011;10399;50.754;3.366;2023-04-03T08:03:16;14.40;;;7.20;;
20480;SDS011;10399;50.754;3.366;2023-04-03T08:05:45;13.55;;;7.50;;
20480;SDS011;10399;50.754;3.366;2023-04-03T08:08:13;15.10;;;6.78;;
20480;SDS011;10399;50.754;3.366;2023-04-03T08:10:53;10.32;;;6.43;;
20480;SDS011;10399;50.754;3.366;2023-04-03T08:13:21;8.07;;;6.50;;
20480;SDS011;10399;50.754;3.366;2023-04-03T08:15:48;9.57;;;6.38;;
20480;SDS011;10399;50.754;3.366;2023-04-03T08:18:16;9.18;;;6.30;;
20480;SDS011;10399;50.754;3.366;2023-04-03T08:20:43;13.50;;;6.38;;
20480;SDS011;10399;50.754;3.366;2023-04-03T08:23:10;11.68;;;6.20;;
20480;SDS011;10399;50.754;3.366;2023-04-03T08:25:41;11.73;;;6.07;;
20480;SDS011;10399;50.754;3.366;2023-04-03T08:28:09;9.15;;;5.63;;
20480;SDS011;10399;50.754;3.366;2023-04-03T08:30:40;9.63;;;6.03;;
20480;SDS011;10399;50.754;3.366;2023-04-03T08:33:09;10.55;;;6.07;;
20480;SDS011;10399;50.754;3.366;2023-04-03T08:35:40;12.02;;;6.63;;
20480;SDS011;10399;50.754;3.366;2023-04-03T08:38:09;12.75;;;6.80;;
20480;SDS011;10399;50.754;3.366;2023-04-03T08:40:37;12.85;;;6.95;;
20480;SDS011;10399;50.754;3.366;2023-04-03T08:45:53;10.98;;;7.25;;
20480;SDS011;10399;50.754;3.366;2023-04-03T08:48:26;11.75;;;7.07;;
20480;SDS011;10399;50.754;3.366;2023-04-03T08:50:58;35.67;;;17.58;;
20480;SDS011;10399;50.754;3.366;2023-04-03T08:53:38;10.80;;;6.68;;
20480;SDS011;10399;50.754;3.366;2023-04-03T08:56:09;11.63;;;6.75;;
20480;SDS011;10399;50.754;3.366;2023-04-03T08:58:57;11.85;;;6.32;;
20480;SDS011;10399;50.754;3.366;2023-04-03T09:01:30;9.70;;;6.20;;
20480;SDS011;10399;50.754;3.366;2023-04-03T09:04:05;10.68;;;6.28;;
20480;SDS011;10399;50.754;3.366;2023-04-03T09:06:43;11.73;;;6.20;;
20480;SDS011;10399;50.754;3.366;2023-04-03T09:20:02;7.30;;;4.82;;
20480;SDS011;10399;50.754;3.366;2023-04-03T09:22:43;8.68;;;6.15;;
20480;SDS011;10399;50.754;3.366;2023-04-03T09:25:33;9.95;;;5.53;;
20480;SDS011;10399;50.754;3.366;2023-04-03T09:28:03;8.25;;;4.20;;
20480;SDS011;10399;50.754;3.366;2023-04-03T09:30:36;7.15;;;3.40;;
20480;SDS011;10399;50.754;3.366;2023-04-03T09:33:04;6.78;;;4.50;;
20480;SDS011;10399;50.754;3.366;2023-04-03T09:35:34;6.75;;;3.67;;
20480;SDS011;10399;50.754;3.366;2023-04-03T09:40:45;7.43;;;3.80;;
20480;SDS011;10399;50.754;3.366;2023-04-03T09:45:50;9.23;;;4.47;;
20480;SDS011;10399;50.754;3.366;2023-04-03T09:48:19;4.97;;;3.08;;
20480;SDS011;10399;50.754;3.366;2023-04-03T09:55:58;6.25;;;2.30;;
20480;SDS011;10399;50.754;3.366;2023-04-03T09:58:39;6.22;;;2.70;;
20480;SDS011;10399;50.754;3.366;2023-04-03T10:01:23;7.05;;;3.00;;
20480;SDS011;10399;50.754;3.366;2023-04-03T10:06:53;2.78;;;2.10;;
20480;SDS011;10399;50.754;3.366;2023-04-03T10:09:22;5.85;;;2.97;;
20480;SDS011;10399;50.754;3.366;2023-04-03T10:15:00;3.90;;;2.40;;
20480;SDS011;10399;50.754;3.366;2023-04-03T10:31:16;7.57;;;2.95;;
20480;SDS011;10399;50.754;3.366;2023-04-03T10:33:59;6.20;;;2.70;;
20480;SDS011;10399;50.754;3.366;2023-04-03T10:36:59;5.65;;;2.60;;
20480;SDS011;10399;50.754;3.366;2023-04-03T10:39:37;4.72;;;2.63;;
20480;SDS011;10399;50.754;3.366;2023-04-03T10:44:52;6.57;;;2.72;;
20480;SDS011;10399;50.754;3.366;2023-04-03T10:50:36;6.03;;;2.78;;
20480;SDS011;10399;50.754;3.366;2023-04-03T10:56:11;7.88;;;3.15;;
20480;SDS011;10399;50.754;3.366;2023-04-03T10:58:49;4.78;;;2.92;;
20480;SDS011;10399;50.754;3.366;2023-04-03T11:01:27;4.30;;;2.70;;
20480;SDS011;10399;50.754;3.366;2023-04-03T11:04:03;4.15;;;2.90;;
20480;SDS011;10399;50.754;3.366;2023-04-03T11:09:46;8.00;;;3.35;;
20480;SDS011;10399;50.754;3.366;2023-04-03T11:12:21;4.88;;;3.50;;
20480;SDS011;10399;50.754;3.366;2023-04-03T11:15:00;6.55;;;3.13;;
20480;SDS011;10399;50.754;3.366;2023-04-03T11:17:43;6.30;;;2.67;;
20480;SDS011;10399;50.754;3.366;2023-04-03T11:20:24;5.63;;;2.85;;
20480;SDS011;10399;50.754;3.366;2023-04-03T11:23:08;4.75;;;2.90;;
20480;SDS011;10399;50.754;3.366;2023-04-03T11:25:50;6.63;;;3.20;;
20480;SDS011;10399;50.754;3.366;2023-04-03T11:28:20;6.50;;;2.83;;
20480;SDS011;10399;50.754;3.366;2023-04-03T11:33:53;6.28;;;3.20;;
20480;SDS011;10399;50.754;3.366;2023-04-03T11:36:52;11.63;;;3.90;;
20480;SDS011;10399;50.754;3.366;2023-04-03T11:39:28;5.13;;;2.88;;
20480;SDS011;10399;50.754;3.366;2023-04-03T11:42:15;7.78;;;3.05;;
20480;SDS011;10399;50.754;3.366;2023-04-03T11:44:52;4.57;;;3.00;;
20480;SDS011;10399;50.754;3.366;2023-04-03T11:47:54;7.35;;;3.10;;
20480;SDS011;10399;50.754;3.366;2023-04-03T11:50:53;4.90;;;2.60;;
20480;SDS011;10399;50.754;3.366;2023-04-03T11:55:59;4.57;;;2.70;;
20480;SDS011;10399;50.754;3.366;2023-04-03T11:59:51;4.75;;;3.03;;
20480;SDS011;10399;50.754;3.366;2023-04-03T12:01:50;4.82;;;3.38;;
20480;SDS011;10399;50.754;3.366;2023-04-03T12:04:21;5.90;;;3.08;;
20480;SDS011;10399;50.754;3.366;2023-04-03T12:09:33;4.25;;;2.72;;
20480;SDS011;10399;50.754;3.366;2023-04-03T12:12:33;6.35;;;3.05;;
20480;SDS011;10399;50.754;3.366;2023-04-03T12:15:22;4.80;;;2.85;;
20480;SDS011;10399;50.754;3.366;2023-04-03T12:17:52;5.93;;;2.85;;
20480;SDS011;10399;50.754;3.366;2023-04-03T12:23:27;4.30;;;2.67;;
20480;SDS011;10399;50.754;3.366;2023-04-03T12:26:04;7.70;;;2.28;;
20480;SDS011;10399;50.754;3.366;2023-04-03T12:28:45;6.93;;;2.60;;
20480;SDS011;10399;50.754;3.366;2023-04-03T12:31:14;4.55;;;2.63;;
20480;SDS011;10399;50.754;3.366;2023-04-03T12:34:09;4.32;;;2.50;;
20480;SDS011;10399;50.754;3.366;2023-04-03T12:42:55;3.47;;;2.10;;
20480;SDS011;10399;50.754;3.366;2023-04-03T12:45:19;6.72;;;2.45;;
20480;SDS011;10399;50.754;3.366;2023-04-03T12:47:51;4.40;;;2.22;;
20480;SDS011;10399;50.754;3.366;2023-04-03T12:50:21;5.40;;;2.42;;
20480;SDS011;10399;50.754;3.366;2023-04-03T12:53:04;4.97;;;2.10;;
20480;SDS011;10399;50.754;3.366;2023-04-03T12:55:33;3.35;;;2.00;;
20480;SDS011;10399;50.754;3.366;2023-04-03T13:01:01;7.53;;;3.00;;
20480;SDS011;10399;50.754;3.366;2023-04-03T13:03:30;5.97;;;2.53;;
20480;SDS011;10399;50.754;3.366;2023-04-03T13:06:01;4.07;;;2.15;;
20480;SDS011;10399;50.754;3.366;2023-04-03T13:08:30;6.10;;;2.35;;
20480;SDS011;10399;50.754;3.366;2023-04-03T13:11:01;4.93;;;1.92;;
20480;SDS011;10399;50.754;3.366;2023-04-03T13:13:36;4.75;;;2.35;;
20480;SDS011;10399;50.754;3.366;2023-04-03T13:16:10;2.55;;;2.08;;
20480;SDS011;10399;50.754;3.366;2023-04-03T13:18:39;3.78;;;2.03;;
20480;SDS011;10399;50.754;3.366;2023-04-03T13:23:40;4.30;;;2.20;;
20480;SDS011;10399;50.754;3.366;2023-04-03T13:26:11;5.20;;;2.10;;
20480;SDS011;10399;50.754;3.366;2023-04-03T13:28:39;3.30;;;1.80;;
20480;SDS011;10399;50.754;3.366;2023-04-03T13:34:06;4.03;;;1.80;;
20480;SDS011;10399;50.754;3.366;2023-04-03T13:36:54;8.95;;;3.05;;
20480;SDS011;10399;50.754;3.366;2023-04-03T13:39:30;4.60;;;2.13;;
20480;SDS011;10399;50.754;3.366;2023-04-03T13:42:21;5.38;;;2.10;;
20480;SDS011;10399;50.754;3.366;2023-04-03T13:45:06;9.10;;;2.67;;
20480;SDS011;10399;50.754;3.366;2023-04-03T13:47:42;3.05;;;2.08;;
20480;SDS011;10399;50.754;3.366;2023-04-03T13:52:46;5.82;;;1.92;;
20480;SDS011;10399;50.754;3.366;2023-04-03T13:55:57;5.95;;;1.70;;
20480;SDS011;10399;50.754;3.366;2023-04-03T13:58:31;7.65;;;1.70;;
20480;SDS011;10399;50.754;3.366;2023-04-03T14:01:11;6.72;;;2.13;;
20480;SDS011;10399;50.754;3.366;2023-04-03T14:03:52;2.70;;;1.75;;
20480;SDS011;10399;50.754;3.366;2023-04-03T14:06:20;5.13;;;1.90;;
20480;SDS011;10399;50.754;3.366;2023-04-03T14:08:48;4.43;;;1.92;;
20480;SDS011;10399;50.754;3.366;2023-04-03T14:13:45;2.53;;;1.80;;
20480;SDS011;10399;50.754;3.366;2023-04-03T14:16:14;8.07;;;2.53;;
20480;SDS011;10399;50.754;3.366;2023-04-03T14:18:44;5.90;;;1.98;;
20480;SDS011;10399;50.754;3.366;2023-04-03T14:21:14;3.70;;;1.77;;
20480;SDS011;10399;50.754;3.366;2023-04-03T14:23:42;6.70;;;2.08;;
20480;SDS011;10399;50.754;3.366;2023-04-03T14:26:13;9.63;;;2.42;;
20480;SDS011;10399;50.754;3.366;2023-04-03T14:28:44;5.20;;;1.90;;
20480;SDS011;10399;50.754;3.366;2023-04-03T14:31:13;4.07;;;1.90;;
20480;SDS011;10399;50.754;3.366;2023-04-03T14:33:44;2.72;;;1.60;;
20480;SDS011;10399;50.754;3.366;2023-04-03T14:36:13;4.72;;;1.98;;
20480;SDS011;10399;50.754;3.366;2023-04-03T14:38:42;3.20;;;1.80;;
20480;SDS011;10399;50.754;3.366;2023-04-03T14:41:11;4.45;;;1.73;;
20480;SDS011;10399;50.754;3.366;2023-04-03T14:43:42;3.45;;;2.03;;
20480;SDS011;10399;50.754;3.366;2023-04-03T14:46:14;6.70;;;2.08;;
20480;SDS011;10399;50.754;3.366;2023-04-03T14:49:08;2.30;;;1.30;;
20480;SDS011;10399;50.754;3.366;2023-04-03T14:51:41;4.82;;;1.73;;
20480;SDS011;10399;50.754;3.366;2023-04-03T14:54:20;7.28;;;2.28;;
20480;SDS011;10399;50.754;3.366;2023-04-03T14:56:51;5.38;;;1.88;;
20480;SDS011;10399;50.754;3.366;2023-04-03T14:59:19;3.28;;;1.58;;
20480;SDS011;10399;50.754;3.366;2023-04-03T15:01:47;4.45;;;1.70;;
20480;SDS011;10399;50.754;3.366;2023-04-03T15:04:17;4.65;;;1.90;;
20480;SDS011;10399;50.754;3.366;2023-04-03T15:06:46;3.90;;;1.55;;
20480;SDS011;10399;50.754;3.366;2023-04-03T15:09:24;9.07;;;1.70;;
20480;SDS011;10399;50.754;3.366;2023-04-03T15:11:53;2.40;;;1.55;;
20480;SDS011;10399;50.754;3.366;2023-04-03T15:14:21;5.78;;;1.77;;
20480;SDS011;10399;50.754;3.366;2023-04-03T15:17:06;2.95;;;1.75;;
20480;SDS011;10399;50.754;3.366;2023-04-03T15:19:37;3.40;;;1.90;;
20480;SDS011;10399;50.754;3.366;2023-04-03T15:22:06;7.07;;;1.60;;
20480;SDS011;10399;50.754;3.366;2023-04-03T15:24:37;2.63;;;1.33;;
20480;SDS011;10399;50.754;3.366;2023-04-03T15:27:04;6.07;;;1.67;;
20480;SDS011;10399;50.754;3.366;2023-04-03T15:29:31;4.95;;;1.60;;
20480;SDS011;10399;50.754;3.366;2023-04-03T15:31:58;4.82;;;1.45;;
20480;SDS011;10399;50.754;3.366;2023-04-03T15:34:26;2.75;;;1.67;;
20480;SDS011;10399;50.754;3.366;2023-04-03T15:36:53;4.65;;;1.88;;
20480;SDS011;10399;50.754;3.366;2023-04-03T15:39:21;3.70;;;1.73;;
20480;SDS011;10399;50.754;3.366;2023-04-03T15:41:49;2.90;;;1.55;;
20480;SDS011;10399;50.754;3.366;2023-04-03T15:44:18;3.20;;;1.65;;
20480;SDS011;10399;50.754;3.366;2023-04-03T15:46:45;3.38;;;1.60;;
20480;SDS011;10399;50.754;3.366;2023-04-03T15:49:14;6.15;;;1.83;;
20480;SDS011;10399;50.754;3.366;2023-04-03T15:51:42;3.50;;;1.42;;
20480;SDS011;10399;50.754;3.366;2023-04-03T15:54:09;2.45;;;1.50;;
20480;SDS011;10399;50.754;3.366;2023-04-03T15:56:36;3.10;;;1.50;;
20480;SDS011;10399;50.754;3.366;2023-04-03T15:59:03;5.75;;;1.60;;
20480;SDS011;10399;50.754;3.366;2023-04-03T16:01:30;3.30;;;1.52;;
20480;SDS011;10399;50.754;3.366;2023-04-03T16:03:58;8.65;;;3.97;;
20480;SDS011;10399;50.754;3.366;2023-04-03T16:06:25;8.43;;;2.80;;
20480;SDS011;10399;50.754;3.366;2023-04-03T16:08:55;8.48;;;1.63;;
20480;SDS011;10399;50.754;3.366;2023-04-03T16:11:24;4.43;;;1.95;;
20480;SDS011;10399;50.754;3.366;2023-04-03T16:13:53;6.47;;;1.88;;
20480;SDS011;10399;50.754;3.366;2023-04-03T16:16:20;3.20;;;1.80;;
20480;SDS011;10399;50.754;3.366;2023-04-03T16:18:48;4.43;;;2.38;;
20480;SDS011;10399;50.754;3.366;2023-04-03T16:21:16;2.78;;;1.63;;
20480;SDS011;10399;50.754;3.366;2023-04-03T16:23:44;3.67;;;1.77;;
20480;SDS011;10399;50.754;3.366;2023-04-03T16:26:11;5.35;;;1.73;;
20480;SDS011;10399;50.754;3.366;2023-04-03T16:28:38;3.72;;;1.77;;